Site:       
  Group:  
  From:      To:        
   
Sensor Name: Furnace      Latitude:-9.57320000 , Longitude:53.92290000
Please click on the Table Headers to view a Graph of the Observations.
TimeMax. Temp. (°C)Min. Temp. (°C)Mean Temp. (°C)Tot. Rain (mm)Mean Wind (kn)Max Gust (kn)Solar Rad. (J\cm2)Humidity (%)Atmos. Press. (mb)Temp. 5cm (°C)Temp. 10cm (°C)Temp. 20cm (°C)Temp. 30cm (°C)Temp. 50cm (°C)Temp. 100cm (°C)Grass Min. (°C)
15/01/2018 23:00:004.50 2.80 3.70 1.20 23.00 45.10 0.00 80.30 989.20 4.30 4.60 5.50 -999.00 6.30 6.70 1.80
15/01/2018 22:00:004.70 3.40 4.00 0.60 22.20 40.30 0.00 82.60 988.90 4.50 4.80 5.60 -999.00 6.30 6.70 2.30
15/01/2018 21:00:005.00 3.90 4.50 1.40 23.40 41.00 0.00 83.10 988.50 4.70 5.00 5.70 -999.00 6.30 6.70 2.90
15/01/2018 20:00:005.70 4.40 5.00 1.20 20.00 38.30 0.00 81.30 988.40 4.90 5.10 5.80 -999.00 6.30 6.70 3.20
15/01/2018 19:00:005.70 5.00 5.30 0.00 18.60 35.40 0.00 79.60 988.60 5.00 5.30 6.00 -999.00 6.30 6.70 4.00
15/01/2018 18:00:006.10 4.70 5.40 1.60 19.90 36.80 0.00 82.50 989.10 5.30 5.60 6.10 -999.00 6.30 6.70 3.50
15/01/2018 17:00:005.90 5.10 5.50 0.20 22.40 41.50 3.40 78.10 989.20 5.70 5.90 6.10 -999.00 6.30 6.70 3.80
15/01/2018 16:00:006.30 5.40 5.90 0.40 20.20 40.70 14.30 77.30 989.70 5.90 6.10 6.20 -999.00 6.30 6.70 4.40
15/01/2018 15:00:007.00 5.70 6.30 0.60 19.30 34.00 20.80 81.10 990.20 6.10 6.10 6.20 -999.00 6.30 6.70 5.00
15/01/2018 14:00:007.10 5.90 6.50 0.20 17.80 33.90 34.90 80.70 990.40 6.10 6.10 6.20 -999.00 6.30 6.70 5.00
15/01/2018 13:00:007.10 5.80 6.40 0.80 18.50 34.50 29.30 80.80 990.90 6.10 6.10 6.20 -999.00 6.30 6.70 4.80
15/01/2018 12:00:007.00 6.00 6.50 0.20 18.10 32.00 31.60 80.50 991.40 5.90 6.00 6.30 -999.00 6.30 6.70 5.10
15/01/2018 11:00:006.70 5.70 6.20 0.80 19.10 37.00 13.70 82.20 991.60 5.90 6.10 6.40 -999.00 6.30 6.70 4.70
15/01/2018 10:00:006.40 5.70 6.10 0.60 17.70 34.20 10.70 84.10 991.50 6.10 6.30 6.50 -999.00 6.20 6.70 4.80
15/01/2018 09:00:006.80 5.80 6.30 0.80 16.30 26.20 0.30 83.50 991.20 6.30 6.50 6.60 -999.00 6.20 6.60 5.00
15/01/2018 08:00:006.80 6.10 6.40 0.60 15.00 29.60 0.00 85.70 991.10 6.60 6.80 6.70 -999.00 6.20 6.60 5.00
15/01/2018 07:00:007.50 6.80 7.20 0.80 17.10 30.10 0.00 85.00 990.60 6.90 7.00 6.80 -999.00 6.20 6.60 5.70
15/01/2018 06:00:007.90 7.50 7.70 0.20 15.40 27.70 0.00 85.10 990.20 7.20 7.20 6.80 -999.00 6.10 6.60 6.40
15/01/2018 05:00:008.00 7.60 7.80 0.60 16.90 28.00 0.00 90.20 990.40 7.40 7.40 6.80 -999.00 6.10 6.60 6.90
15/01/2018 04:00:008.50 8.00 8.30 0.60 14.60 30.00 0.00 92.90 990.90 7.50 7.40 6.80 -999.00 6.10 6.60 7.30
15/01/2018 03:00:008.80 8.40 8.60 1.20 11.40 20.60 0.00 95.10 992.00 7.60 7.50 6.80 -999.00 6.10 6.60 8.10
15/01/2018 02:00:008.90 8.40 8.60 0.60 12.00 21.50 0.00 96.40 993.30 7.60 7.50 6.70 -999.00 6.00 6.60 8.10
15/01/2018 01:00:009.00 8.80 8.90 0.20 10.00 18.20 0.00 96.90 993.90 7.60 7.50 6.70 -999.00 6.00 6.60 8.40
15/01/2018 00:00:009.20 9.00 9.10 0.10 10.20 17.40 0.00 97.10 994.70 7.70 7.50 6.60 6.30 6.00 6.60 8.60
14/01/2018 23:00:009.40 9.10 9.30 2.10 8.90 20.10 0.00 97.20 995.40 7.70 7.40 6.50 -999.00 6.00 6.60 8.90
14/01/2018 22:00:009.40 9.20 9.30 1.40 7.70 18.60 0.00 96.90 995.80 7.70 7.40 6.40 -999.00 5.90 6.60 9.00